sensor_id;sensor_type;location;lat;lon;timestamp;P1;durP1;ratioP1;P2;durP2;ratioP2
24305;SDS011;12423;48.768;8.850;2022-07-09T00:01:56;4.18;;;2.40;;
24305;SDS011;12423;48.768;8.850;2022-07-09T00:03:57;7.32;;;2.50;;
24305;SDS011;12423;48.768;8.850;2022-07-09T00:05:57;5.88;;;2.55;;
24305;SDS011;12423;48.768;8.850;2022-07-09T00:07:58;5.95;;;2.40;;
24305;SDS011;12423;48.768;8.850;2022-07-09T00:09:59;6.07;;;2.50;;
24305;SDS011;12423;48.768;8.850;2022-07-09T00:12:00;4.45;;;2.22;;
24305;SDS011;12423;48.768;8.850;2022-07-09T00:14:01;5.75;;;2.50;;
24305;SDS011;12423;48.768;8.850;2022-07-09T00:16:02;7.60;;;2.70;;
24305;SDS011;12423;48.768;8.850;2022-07-09T00:18:04;5.20;;;2.75;;
24305;SDS011;12423;48.768;8.850;2022-07-09T00:20:05;5.28;;;2.72;;
24305;SDS011;12423;48.768;8.850;2022-07-09T00:22:06;4.72;;;2.42;;
24305;SDS011;12423;48.768;8.850;2022-07-09T00:24:07;4.82;;;2.35;;
24305;SDS011;12423;48.768;8.850;2022-07-09T00:26:08;5.30;;;2.90;;
24305;SDS011;12423;48.768;8.850;2022-07-09T00:28:09;5.55;;;2.45;;
24305;SDS011;12423;48.768;8.850;2022-07-09T00:30:10;8.82;;;3.13;;
24305;SDS011;12423;48.768;8.850;2022-07-09T00:32:11;6.57;;;2.50;;
24305;SDS011;12423;48.768;8.850;2022-07-09T00:34:12;7.13;;;2.38;;
24305;SDS011;12423;48.768;8.850;2022-07-09T00:36:13;4.93;;;2.92;;
24305;SDS011;12423;48.768;8.850;2022-07-09T00:38:14;4.47;;;2.78;;
24305;SDS011;12423;48.768;8.850;2022-07-09T00:40:15;6.30;;;2.83;;
24305;SDS011;12423;48.768;8.850;2022-07-09T00:42:16;11.50;;;4.28;;
24305;SDS011;12423;48.768;8.850;2022-07-09T00:44:17;5.55;;;2.65;;
24305;SDS011;12423;48.768;8.850;2022-07-09T00:46:18;8.88;;;3.00;;
24305;SDS011;12423;48.768;8.850;2022-07-09T00:48:19;6.35;;;2.80;;
24305;SDS011;12423;48.768;8.850;2022-07-09T00:50:20;6.07;;;2.90;;
24305;SDS011;12423;48.768;8.850;2022-07-09T00:52:21;4.53;;;2.92;;
24305;SDS011;12423;48.768;8.850;2022-07-09T00:54:23;6.70;;;3.00;;
24305;SDS011;12423;48.768;8.850;2022-07-09T00:56:25;7.47;;;2.78;;
24305;SDS011;12423;48.768;8.850;2022-07-09T00:58:28;6.50;;;2.70;;
24305;SDS011;12423;48.768;8.850;2022-07-09T01:00:30;8.15;;;2.92;;
24305;SDS011;12423;48.768;8.850;2022-07-09T01:02:31;5.40;;;3.30;;
24305;SDS011;12423;48.768;8.850;2022-07-09T01:04:32;6.65;;;2.95;;
24305;SDS011;12423;48.768;8.850;2022-07-09T01:06:33;6.72;;;2.75;;
24305;SDS011;12423;48.768;8.850;2022-07-09T01:08:37;4.57;;;2.42;;
24305;SDS011;12423;48.768;8.850;2022-07-09T01:10:38;5.43;;;2.95;;
24305;SDS011;12423;48.768;8.850;2022-07-09T01:12:39;4.95;;;2.80;;
24305;SDS011;12423;48.768;8.850;2022-07-09T01:14:40;4.85;;;2.83;;
24305;SDS011;12423;48.768;8.850;2022-07-09T01:16:41;5.70;;;2.85;;
24305;SDS011;12423;48.768;8.850;2022-07-09T01:18:45;5.30;;;2.78;;
24305;SDS011;12423;48.768;8.850;2022-07-09T01:20:47;5.65;;;2.90;;
24305;SDS011;12423;48.768;8.850;2022-07-09T01:22:48;6.50;;;2.72;;
24305;SDS011;12423;48.768;8.850;2022-07-09T01:24:49;5.75;;;2.58;;
24305;SDS011;12423;48.768;8.850;2022-07-09T01:26:53;7.15;;;3.13;;
24305;SDS011;12423;48.768;8.850;2022-07-09T01:28:54;7.45;;;3.00;;
24305;SDS011;12423;48.768;8.850;2022-07-09T01:30:55;6.22;;;3.00;;
24305;SDS011;12423;48.768;8.850;2022-07-09T01:32:56;8.73;;;3.03;;
24305;SDS011;12423;48.768;8.850;2022-07-09T01:34:57;5.93;;;3.10;;
24305;SDS011;12423;48.768;8.850;2022-07-09T01:36:58;5.45;;;3.20;;
24305;SDS011;12423;48.768;8.850;2022-07-09T01:38:59;7.78;;;3.28;;
24305;SDS011;12423;48.768;8.850;2022-07-09T01:41:01;7.95;;;2.90;;
24305;SDS011;12423;48.768;8.850;2022-07-09T01:43:02;7.30;;;3.25;;
24305;SDS011;12423;48.768;8.850;2022-07-09T01:45:03;7.45;;;3.25;;
24305;SDS011;12423;48.768;8.850;2022-07-09T01:47:04;4.60;;;2.88;;
24305;SDS011;12423;48.768;8.850;2022-07-09T01:49:05;6.38;;;3.05;;
24305;SDS011;12423;48.768;8.850;2022-07-09T01:51:06;6.90;;;3.30;;
24305;SDS011;12423;48.768;8.850;2022-07-09T01:53:07;9.05;;;3.25;;
24305;SDS011;12423;48.768;8.850;2022-07-09T01:55:09;6.72;;;3.20;;
24305;SDS011;12423;48.768;8.850;2022-07-09T01:57:10;6.00;;;2.88;;
24305;SDS011;12423;48.768;8.850;2022-07-09T01:59:11;5.88;;;2.95;;
24305;SDS011;12423;48.768;8.850;2022-07-09T02:01:12;8.05;;;3.00;;
24305;SDS011;12423;48.768;8.850;2022-07-09T02:03:13;6.22;;;3.08;;
24305;SDS011;12423;48.768;8.850;2022-07-09T02:05:14;6.95;;;3.03;;
24305;SDS011;12423;48.768;8.850;2022-07-09T02:07:15;5.07;;;2.78;;
24305;SDS011;12423;48.768;8.850;2022-07-09T02:09:16;6.03;;;2.85;;
24305;SDS011;12423;48.768;8.850;2022-07-09T02:11:18;5.35;;;2.80;;
24305;SDS011;12423;48.768;8.850;2022-07-09T02:13:19;8.43;;;3.53;;
24305;SDS011;12423;48.768;8.850;2022-07-09T02:15:21;6.95;;;2.90;;
24305;SDS011;12423;48.768;8.850;2022-07-09T02:17:22;5.03;;;2.97;;
24305;SDS011;12423;48.768;8.850;2022-07-09T02:19:23;5.43;;;3.10;;
24305;SDS011;12423;48.768;8.850;2022-07-09T02:21:24;5.63;;;2.90;;
24305;SDS011;12423;48.768;8.850;2022-07-09T02:23:25;6.47;;;2.72;;
24305;SDS011;12423;48.768;8.850;2022-07-09T02:25:26;6.85;;;3.05;;
24305;SDS011;12423;48.768;8.850;2022-07-09T02:27:28;7.20;;;3.08;;
24305;SDS011;12423;48.768;8.850;2022-07-09T02:29:29;5.53;;;3.17;;
24305;SDS011;12423;48.768;8.850;2022-07-09T02:31:30;7.53;;;2.42;;
24305;SDS011;12423;48.768;8.850;2022-07-09T02:33:31;5.13;;;2.90;;
24305;SDS011;12423;48.768;8.850;2022-07-09T02:35:32;9.00;;;3.10;;
24305;SDS011;12423;48.768;8.850;2022-07-09T02:37:33;4.88;;;3.00;;
24305;SDS011;12423;48.768;8.850;2022-07-09T02:39:34;6.40;;;2.80;;
24305;SDS011;12423;48.768;8.850;2022-07-09T02:41:35;6.85;;;3.92;;
24305;SDS011;12423;48.768;8.850;2022-07-09T02:43:36;5.57;;;3.53;;
24305;SDS011;12423;48.768;8.850;2022-07-09T02:45:38;5.60;;;2.72;;
24305;SDS011;12423;48.768;8.850;2022-07-09T02:47:39;5.05;;;2.83;;
24305;SDS011;12423;48.768;8.850;2022-07-09T02:49:40;7.38;;;3.08;;
24305;SDS011;12423;48.768;8.850;2022-07-09T02:51:41;5.03;;;3.05;;
24305;SDS011;12423;48.768;8.850;2022-07-09T02:53:42;7.07;;;2.72;;
24305;SDS011;12423;48.768;8.850;2022-07-09T02:55:43;5.85;;;3.17;;
24305;SDS011;12423;48.768;8.850;2022-07-09T02:57:45;4.45;;;2.53;;
24305;SDS011;12423;48.768;8.850;2022-07-09T02:59:46;6.30;;;3.20;;
24305;SDS011;12423;48.768;8.850;2022-07-09T03:01:46;7.70;;;3.08;;
24305;SDS011;12423;48.768;8.850;2022-07-09T03:03:47;5.45;;;3.03;;
24305;SDS011;12423;48.768;8.850;2022-07-09T03:05:48;6.93;;;3.22;;
24305;SDS011;12423;48.768;8.850;2022-07-09T03:07:49;6.32;;;2.78;;
24305;SDS011;12423;48.768;8.850;2022-07-09T03:09:50;4.88;;;2.92;;
24305;SDS011;12423;48.768;8.850;2022-07-09T03:11:51;7.55;;;3.15;;
24305;SDS011;12423;48.768;8.850;2022-07-09T03:13:52;4.90;;;2.78;;
24305;SDS011;12423;48.768;8.850;2022-07-09T03:15:54;4.40;;;2.85;;
24305;SDS011;12423;48.768;8.850;2022-07-09T03:17:55;4.18;;;2.53;;
24305;SDS011;12423;48.768;8.850;2022-07-09T03:19:56;8.40;;;3.53;;
24305;SDS011;12423;48.768;8.850;2022-07-09T03:21:57;6.65;;;3.00;;
24305;SDS011;12423;48.768;8.850;2022-07-09T03:23:58;7.07;;;3.20;;
24305;SDS011;12423;48.768;8.850;2022-07-09T03:25:59;6.47;;;2.83;;
24305;SDS011;12423;48.768;8.850;2022-07-09T03:28:00;7.00;;;3.53;;
24305;SDS011;12423;48.768;8.850;2022-07-09T03:30:02;5.10;;;3.80;;
24305;SDS011;12423;48.768;8.850;2022-07-09T03:32:04;5.88;;;3.40;;
24305;SDS011;12423;48.768;8.850;2022-07-09T03:34:06;7.38;;;3.55;;
24305;SDS011;12423;48.768;8.850;2022-07-09T03:36:07;6.22;;;3.05;;
24305;SDS011;12423;48.768;8.850;2022-07-09T03:38:08;5.68;;;3.38;;
24305;SDS011;12423;48.768;8.850;2022-07-09T03:40:09;5.95;;;2.78;;
24305;SDS011;12423;48.768;8.850;2022-07-09T03:42:10;5.72;;;2.83;;
24305;SDS011;12423;48.768;8.850;2022-07-09T03:44:11;8.00;;;3.08;;
24305;SDS011;12423;48.768;8.850;2022-07-09T03:46:12;5.90;;;2.78;;
24305;SDS011;12423;48.768;8.850;2022-07-09T03:48:14;7.85;;;3.30;;
24305;SDS011;12423;48.768;8.850;2022-07-09T03:50:15;3.75;;;2.50;;
24305;SDS011;12423;48.768;8.850;2022-07-09T03:52:16;7.32;;;2.80;;
24305;SDS011;12423;48.768;8.850;2022-07-09T03:54:17;9.20;;;3.55;;
24305;SDS011;12423;48.768;8.850;2022-07-09T03:56:18;4.57;;;2.70;;
24305;SDS011;12423;48.768;8.850;2022-07-09T03:58:20;4.35;;;2.90;;
24305;SDS011;12423;48.768;8.850;2022-07-09T04:00:21;6.03;;;3.03;;
24305;SDS011;12423;48.768;8.850;2022-07-09T04:02:22;5.60;;;3.00;;
24305;SDS011;12423;48.768;8.850;2022-07-09T04:04:23;6.55;;;2.70;;
24305;SDS011;12423;48.768;8.850;2022-07-09T04:06:24;7.40;;;3.10;;
24305;SDS011;12423;48.768;8.850;2022-07-09T04:08:25;5.63;;;3.38;;
24305;SDS011;12423;48.768;8.850;2022-07-09T04:10:26;7.28;;;2.92;;
24305;SDS011;12423;48.768;8.850;2022-07-09T04:12:27;6.53;;;3.50;;
24305;SDS011;12423;48.768;8.850;2022-07-09T04:14:28;5.68;;;3.20;;
24305;SDS011;12423;48.768;8.850;2022-07-09T04:16:29;5.60;;;3.05;;
24305;SDS011;12423;48.768;8.850;2022-07-09T04:18:30;6.10;;;3.08;;
24305;SDS011;12423;48.768;8.850;2022-07-09T04:20:31;6.70;;;3.05;;
24305;SDS011;12423;48.768;8.850;2022-07-09T04:22:32;8.02;;;3.35;;
24305;SDS011;12423;48.768;8.850;2022-07-09T04:24:33;9.20;;;3.47;;
24305;SDS011;12423;48.768;8.850;2022-07-09T04:26:34;4.72;;;3.20;;
24305;SDS011;12423;48.768;8.850;2022-07-09T04:28:35;8.05;;;3.63;;
24305;SDS011;12423;48.768;8.850;2022-07-09T04:30:37;7.97;;;3.17;;
24305;SDS011;12423;48.768;8.850;2022-07-09T04:32:38;4.10;;;2.95;;
24305;SDS011;12423;48.768;8.850;2022-07-09T04:34:39;7.38;;;2.88;;
24305;SDS011;12423;48.768;8.850;2022-07-09T04:36:40;4.63;;;2.90;;
24305;SDS011;12423;48.768;8.850;2022-07-09T04:38:41;4.93;;;3.22;;
24305;SDS011;12423;48.768;8.850;2022-07-09T04:40:43;6.15;;;3.10;;
24305;SDS011;12423;48.768;8.850;2022-07-09T04:42:44;6.35;;;2.97;;
24305;SDS011;12423;48.768;8.850;2022-07-09T04:44:45;6.97;;;3.25;;
24305;SDS011;12423;48.768;8.850;2022-07-09T04:46:46;5.63;;;2.95;;
24305;SDS011;12423;48.768;8.850;2022-07-09T04:48:47;5.95;;;2.88;;
24305;SDS011;12423;48.768;8.850;2022-07-09T04:50:49;7.32;;;2.72;;
24305;SDS011;12423;48.768;8.850;2022-07-09T04:52:50;7.15;;;3.30;;
24305;SDS011;12423;48.768;8.850;2022-07-09T04:54:52;9.00;;;3.35;;
24305;SDS011;12423;48.768;8.850;2022-07-09T04:56:53;8.50;;;3.47;;
24305;SDS011;12423;48.768;8.850;2022-07-09T04:58:54;4.75;;;3.40;;
24305;SDS011;12423;48.768;8.850;2022-07-09T05:00:56;7.95;;;3.53;;
24305;SDS011;12423;48.768;8.850;2022-07-09T05:02:57;8.27;;;3.28;;
24305;SDS011;12423;48.768;8.850;2022-07-09T05:04:58;5.68;;;3.33;;
24305;SDS011;12423;48.768;8.850;2022-07-09T05:06:59;7.18;;;3.65;;
24305;SDS011;12423;48.768;8.850;2022-07-09T05:09:00;6.43;;;3.30;;
24305;SDS011;12423;48.768;8.850;2022-07-09T05:11:01;5.82;;;3.28;;
24305;SDS011;12423;48.768;8.850;2022-07-09T05:13:02;6.93;;;3.83;;
24305;SDS011;12423;48.768;8.850;2022-07-09T05:15:03;7.28;;;3.40;;
24305;SDS011;12423;48.768;8.850;2022-07-09T05:17:04;10.02;;;3.78;;
24305;SDS011;12423;48.768;8.850;2022-07-09T05:19:06;7.45;;;3.13;;
24305;SDS011;12423;48.768;8.850;2022-07-09T05:21:07;11.35;;;3.80;;
24305;SDS011;12423;48.768;8.850;2022-07-09T05:23:08;6.88;;;3.47;;
24305;SDS011;12423;48.768;8.850;2022-07-09T05:25:09;9.63;;;3.50;;
24305;SDS011;12423;48.768;8.850;2022-07-09T05:27:11;9.50;;;3.60;;
24305;SDS011;12423;48.768;8.850;2022-07-09T05:29:12;4.80;;;3.25;;
24305;SDS011;12423;48.768;8.850;2022-07-09T05:31:13;8.75;;;3.75;;
24305;SDS011;12423;48.768;8.850;2022-07-09T05:33:14;11.60;;;3.40;;
24305;SDS011;12423;48.768;8.850;2022-07-09T05:35:15;5.53;;;3.22;;
24305;SDS011;12423;48.768;8.850;2022-07-09T05:37:18;5.82;;;3.53;;
24305;SDS011;12423;48.768;8.850;2022-07-09T05:39:19;7.28;;;3.58;;
24305;SDS011;12423;48.768;8.850;2022-07-09T05:41:19;6.10;;;3.33;;
24305;SDS011;12423;48.768;8.850;2022-07-09T05:43:22;7.70;;;3.70;;
24305;SDS011;12423;48.768;8.850;2022-07-09T05:45:23;4.82;;;2.80;;
24305;SDS011;12423;48.768;8.850;2022-07-09T05:47:25;6.20;;;3.72;;
24305;SDS011;12423;48.768;8.850;2022-07-09T05:49:26;7.63;;;3.38;;
24305;SDS011;12423;48.768;8.850;2022-07-09T05:51:27;7.95;;;3.25;;
24305;SDS011;12423;48.768;8.850;2022-07-09T05:53:28;5.53;;;3.17;;
24305;SDS011;12423;48.768;8.850;2022-07-09T05:55:29;6.13;;;3.40;;
24305;SDS011;12423;48.768;8.850;2022-07-09T05:57:30;6.63;;;3.60;;
24305;SDS011;12423;48.768;8.850;2022-07-09T05:59:31;6.65;;;3.22;;
24305;SDS011;12423;48.768;8.850;2022-07-09T06:01:32;6.05;;;3.30;;
24305;SDS011;12423;48.768;8.850;2022-07-09T06:03:33;6.68;;;3.33;;
24305;SDS011;12423;48.768;8.850;2022-07-09T06:05:34;5.70;;;3.33;;
24305;SDS011;12423;48.768;8.850;2022-07-09T06:07:35;6.80;;;3.45;;
24305;SDS011;12423;48.768;8.850;2022-07-09T06:09:36;7.53;;;3.13;;
24305;SDS011;12423;48.768;8.850;2022-07-09T06:11:37;8.05;;;3.53;;
24305;SDS011;12423;48.768;8.850;2022-07-09T06:13:38;7.18;;;3.20;;
24305;SDS011;12423;48.768;8.850;2022-07-09T06:15:39;4.90;;;3.05;;
24305;SDS011;12423;48.768;8.850;2022-07-09T06:17:40;5.18;;;3.20;;
24305;SDS011;12423;48.768;8.850;2022-07-09T06:19:41;6.63;;;3.05;;
24305;SDS011;12423;48.768;8.850;2022-07-09T06:21:42;4.95;;;3.22;;
24305;SDS011;12423;48.768;8.850;2022-07-09T06:23:43;6.43;;;3.00;;
24305;SDS011;12423;48.768;8.850;2022-07-09T06:25:44;7.50;;;3.40;;
24305;SDS011;12423;48.768;8.850;2022-07-09T06:27:45;6.95;;;3.25;;
24305;SDS011;12423;48.768;8.850;2022-07-09T06:29:46;6.90;;;3.03;;
24305;SDS011;12423;48.768;8.850;2022-07-09T06:31:47;7.35;;;3.97;;
24305;SDS011;12423;48.768;8.850;2022-07-09T06:33:48;6.70;;;3.83;;
24305;SDS011;12423;48.768;8.850;2022-07-09T06:35:49;6.35;;;2.97;;
24305;SDS011;12423;48.768;8.850;2022-07-09T06:37:50;5.30;;;3.13;;
24305;SDS011;12423;48.768;8.850;2022-07-09T06:39:51;5.88;;;2.95;;
24305;SDS011;12423;48.768;8.850;2022-07-09T06:42:03;6.07;;;2.92;;
24305;SDS011;12423;48.768;8.850;2022-07-09T06:44:07;4.75;;;2.65;;
24305;SDS011;12423;48.768;8.850;2022-07-09T06:46:08;8.20;;;2.55;;
24305;SDS011;12423;48.768;8.850;2022-07-09T06:48:09;6.45;;;2.90;;
24305;SDS011;12423;48.768;8.850;2022-07-09T06:50:10;3.72;;;2.45;;
24305;SDS011;12423;48.768;8.850;2022-07-09T06:52:11;6.57;;;3.30;;
24305;SDS011;12423;48.768;8.850;2022-07-09T06:54:12;5.85;;;2.75;;
24305;SDS011;12423;48.768;8.850;2022-07-09T06:56:13;3.85;;;2.55;;
24305;SDS011;12423;48.768;8.850;2022-07-09T06:58:14;5.10;;;2.63;;
24305;SDS011;12423;48.768;8.850;2022-07-09T07:00:15;5.97;;;3.00;;
24305;SDS011;12423;48.768;8.850;2022-07-09T07:02:16;6.25;;;2.92;;
24305;SDS011;12423;48.768;8.850;2022-07-09T07:04:17;7.38;;;2.65;;
24305;SDS011;12423;48.768;8.850;2022-07-09T07:06:18;6.22;;;2.67;;
24305;SDS011;12423;48.768;8.850;2022-07-09T07:08:19;5.68;;;2.50;;
24305;SDS011;12423;48.768;8.850;2022-07-09T07:10:20;6.90;;;2.40;;
24305;SDS011;12423;48.768;8.850;2022-07-09T07:12:21;5.70;;;2.45;;
24305;SDS011;12423;48.768;8.850;2022-07-09T07:14:22;10.02;;;2.58;;
24305;SDS011;12423;48.768;8.850;2022-07-09T07:16:23;5.22;;;2.30;;
24305;SDS011;12423;48.768;8.850;2022-07-09T07:18:24;6.25;;;2.53;;
24305;SDS011;12423;48.768;8.850;2022-07-09T07:20:25;3.97;;;2.03;;
24305;SDS011;12423;48.768;8.850;2022-07-09T07:22:26;5.47;;;1.85;;
24305;SDS011;12423;48.768;8.850;2022-07-09T07:24:27;5.28;;;2.08;;
24305;SDS011;12423;48.768;8.850;2022-07-09T07:26:28;4.32;;;1.75;;
24305;SDS011;12423;48.768;8.850;2022-07-09T07:28:29;5.82;;;2.25;;
24305;SDS011;12423;48.768;8.850;2022-07-09T07:30:30;5.85;;;2.42;;
24305;SDS011;12423;48.768;8.850;2022-07-09T07:32:33;3.67;;;1.85;;
24305;SDS011;12423;48.768;8.850;2022-07-09T07:34:34;4.75;;;1.55;;
24305;SDS011;12423;48.768;8.850;2022-07-09T07:36:35;4.53;;;1.95;;
24305;SDS011;12423;48.768;8.850;2022-07-09T07:38:36;3.28;;;1.90;;
24305;SDS011;12423;48.768;8.850;2022-07-09T07:40:37;3.33;;;1.73;;
24305;SDS011;12423;48.768;8.850;2022-07-09T07:42:38;4.00;;;1.67;;
24305;SDS011;12423;48.768;8.850;2022-07-09T07:44:39;5.45;;;2.20;;
24305;SDS011;12423;48.768;8.850;2022-07-09T07:46:40;5.07;;;1.85;;
24305;SDS011;12423;48.768;8.850;2022-07-09T07:48:41;5.03;;;1.98;;
24305;SDS011;12423;48.768;8.850;2022-07-09T07:50:42;5.90;;;2.10;;
24305;SDS011;12423;48.768;8.850;2022-07-09T07:52:43;3.80;;;1.50;;
24305;SDS011;12423;48.768;8.850;2022-07-09T07:54:45;7.53;;;2.05;;
24305;SDS011;12423;48.768;8.850;2022-07-09T07:56:46;4.35;;;1.63;;
24305;SDS011;12423;48.768;8.850;2022-07-09T07:58:47;5.00;;;1.60;;
24305;SDS011;12423;48.768;8.850;2022-07-09T08:00:48;5.63;;;1.83;;
24305;SDS011;12423;48.768;8.850;2022-07-09T08:02:49;6.80;;;2.10;;
24305;SDS011;12423;48.768;8.850;2022-07-09T08:04:51;4.78;;;1.63;;
24305;SDS011;12423;48.768;8.850;2022-07-09T08:06:52;3.25;;;1.20;;
24305;SDS011;12423;48.768;8.850;2022-07-09T08:08:53;4.20;;;1.48;;
24305;SDS011;12423;48.768;8.850;2022-07-09T08:10:54;8.48;;;1.40;;
24305;SDS011;12423;48.768;8.850;2022-07-09T08:12:55;5.82;;;1.50;;
24305;SDS011;12423;48.768;8.850;2022-07-09T08:14:56;3.97;;;1.50;;
24305;SDS011;12423;48.768;8.850;2022-07-09T08:16:57;3.55;;;1.30;;
24305;SDS011;12423;48.768;8.850;2022-07-09T08:18:58;7.05;;;1.40;;
24305;SDS011;12423;48.768;8.850;2022-07-09T08:20:59;4.22;;;1.20;;
24305;SDS011;12423;48.768;8.850;2022-07-09T08:23:00;3.50;;;1.45;;
24305;SDS011;12423;48.768;8.850;2022-07-09T08:25:01;2.67;;;1.23;;
24305;SDS011;12423;48.768;8.850;2022-07-09T08:27:03;4.20;;;1.20;;
24305;SDS011;12423;48.768;8.850;2022-07-09T08:29:04;4.22;;;1.35;;
24305;SDS011;12423;48.768;8.850;2022-07-09T08:31:05;5.55;;;1.92;;
24305;SDS011;12423;48.768;8.850;2022-07-09T08:33:06;1.83;;;1.08;;
24305;SDS011;12423;48.768;8.850;2022-07-09T08:35:07;4.85;;;1.30;;
24305;SDS011;12423;48.768;8.850;2022-07-09T08:37:08;2.78;;;1.13;;
24305;SDS011;12423;48.768;8.850;2022-07-09T08:39:09;2.03;;;1.00;;
24305;SDS011;12423;48.768;8.850;2022-07-09T08:41:11;4.07;;;1.67;;
24305;SDS011;12423;48.768;8.850;2022-07-09T08:43:13;3.15;;;1.30;;
24305;SDS011;12423;48.768;8.850;2022-07-09T08:45:14;2.90;;;1.25;;
24305;SDS011;12423;48.768;8.850;2022-07-09T08:47:18;4.80;;;1.23;;
24305;SDS011;12423;48.768;8.850;2022-07-09T08:49:19;4.88;;;1.73;;
24305;SDS011;12423;48.768;8.850;2022-07-09T08:51:22;3.45;;;1.30;;
24305;SDS011;12423;48.768;8.850;2022-07-09T08:53:24;4.35;;;1.48;;
24305;SDS011;12423;48.768;8.850;2022-07-09T08:55:28;2.22;;;0.93;;
24305;SDS011;12423;48.768;8.850;2022-07-09T08:57:29;3.40;;;1.40;;
24305;SDS011;12423;48.768;8.850;2022-07-09T08:59:31;6.00;;;2.30;;
24305;SDS011;12423;48.768;8.850;2022-07-09T09:01:33;11.38;;;4.97;;
24305;SDS011;12423;48.768;8.850;2022-07-09T09:03:35;15.25;;;6.80;;
24305;SDS011;12423;48.768;8.850;2022-07-09T09:05:36;7.82;;;2.75;;
24305;SDS011;12423;48.768;8.850;2022-07-09T09:07:37;4.05;;;1.70;;
24305;SDS011;12423;48.768;8.850;2022-07-09T09:09:38;2.58;;;1.05;;
24305;SDS011;12423;48.768;8.850;2022-07-09T09:11:39;2.92;;;1.25;;
24305;SDS011;12423;48.768;8.850;2022-07-09T09:13:40;3.13;;;1.00;;
24305;SDS011;12423;48.768;8.850;2022-07-09T09:15:43;1.60;;;0.90;;
24305;SDS011;12423;48.768;8.850;2022-07-09T09:17:44;2.13;;;0.85;;
24305;SDS011;12423;48.768;8.850;2022-07-09T09:19:46;2.85;;;0.93;;
24305;SDS011;12423;48.768;8.850;2022-07-09T09:21:49;4.05;;;1.35;;
24305;SDS011;12423;48.768;8.850;2022-07-09T09:23:54;1.63;;;0.77;;
24305;SDS011;12423;48.768;8.850;2022-07-09T09:26:06;3.35;;;0.88;;
24305;SDS011;12423;48.768;8.850;2022-07-09T09:28:08;3.33;;;1.17;;
24305;SDS011;12423;48.768;8.850;2022-07-09T09:30:10;3.85;;;0.93;;
24305;SDS011;12423;48.768;8.850;2022-07-09T09:32:11;3.50;;;1.05;;
24305;SDS011;12423;48.768;8.850;2022-07-09T09:34:13;3.75;;;1.00;;
24305;SDS011;12423;48.768;8.850;2022-07-09T09:38:42;6.05;;;1.20;;
24305;SDS011;12423;48.768;8.850;2022-07-09T09:40:45;2.63;;;1.10;;
24305;SDS011;12423;48.768;8.850;2022-07-09T09:42:47;2.92;;;1.10;;
24305;SDS011;12423;48.768;8.850;2022-07-09T09:44:48;3.58;;;0.85;;
24305;SDS011;12423;48.768;8.850;2022-07-09T09:46:51;2.05;;;0.90;;
24305;SDS011;12423;48.768;8.850;2022-07-09T09:48:53;2.65;;;1.02;;
24305;SDS011;12423;48.768;8.850;2022-07-09T09:50:57;1.60;;;0.90;;
24305;SDS011;12423;48.768;8.850;2022-07-09T09:53:01;2.75;;;1.00;;
24305;SDS011;12423;48.768;8.850;2022-07-09T09:55:03;6.15;;;1.00;;
24305;SDS011;12423;48.768;8.850;2022-07-09T09:57:06;3.38;;;0.98;;
24305;SDS011;12423;48.768;8.850;2022-07-09T09:59:09;5.32;;;1.00;;
24305;SDS011;12423;48.768;8.850;2022-07-09T10:01:10;3.63;;;0.90;;
24305;SDS011;12423;48.768;8.850;2022-07-09T10:03:12;4.60;;;1.08;;
24305;SDS011;12423;48.768;8.850;2022-07-09T10:05:13;1.73;;;0.95;;
24305;SDS011;12423;48.768;8.850;2022-07-09T10:07:15;2.55;;;0.90;;
24305;SDS011;12423;48.768;8.850;2022-07-09T10:09:16;3.65;;;0.90;;
24305;SDS011;12423;48.768;8.850;2022-07-09T10:11:17;3.15;;;1.02;;
24305;SDS011;12423;48.768;8.850;2022-07-09T10:13:19;2.30;;;1.05;;
24305;SDS011;12423;48.768;8.850;2022-07-09T10:15:24;2.67;;;0.85;;
24305;SDS011;12423;48.768;8.850;2022-07-09T10:17:27;3.55;;;1.20;;
24305;SDS011;12423;48.768;8.850;2022-07-09T10:19:28;3.40;;;0.80;;
24305;SDS011;12423;48.768;8.850;2022-07-09T10:21:32;3.58;;;1.00;;
24305;SDS011;12423;48.768;8.850;2022-07-09T10:23:34;2.17;;;0.70;;
24305;SDS011;12423;48.768;8.850;2022-07-09T10:25:44;2.05;;;0.80;;
24305;SDS011;12423;48.768;8.850;2022-07-09T10:27:48;3.70;;;0.90;;
24305;SDS011;12423;48.768;8.850;2022-07-09T10:29:57;2.30;;;0.80;;
24305;SDS011;12423;48.768;8.850;2022-07-09T10:31:59;2.88;;;1.30;;
24305;SDS011;12423;48.768;8.850;2022-07-09T10:34:07;2.60;;;0.70;;
24305;SDS011;12423;48.768;8.850;2022-07-09T10:36:16;2.05;;;0.70;;
24305;SDS011;12423;48.768;8.850;2022-07-09T10:38:18;3.47;;;0.70;;
24305;SDS011;12423;48.768;8.850;2022-07-09T10:40:20;3.28;;;1.00;;
24305;SDS011;12423;48.768;8.850;2022-07-09T10:42:23;2.30;;;0.70;;
24305;SDS011;12423;48.768;8.850;2022-07-09T10:44:27;2.55;;;0.88;;
24305;SDS011;12423;48.768;8.850;2022-07-09T10:46:33;2.35;;;0.63;;
24305;SDS011;12423;48.768;8.850;2022-07-09T10:48:35;2.55;;;0.60;;
24305;SDS011;12423;48.768;8.850;2022-07-09T10:50:37;4.18;;;1.15;;
24305;SDS011;12423;48.768;8.850;2022-07-09T10:52:42;2.78;;;0.75;;
24305;SDS011;12423;48.768;8.850;2022-07-09T10:54:47;3.25;;;1.13;;
24305;SDS011;12423;48.768;8.850;2022-07-09T10:56:49;0.85;;;0.60;;
24305;SDS011;12423;48.768;8.850;2022-07-09T10:58:50;2.38;;;0.90;;
24305;SDS011;12423;48.768;8.850;2022-07-09T11:00:54;2.50;;;0.90;;
24305;SDS011;12423;48.768;8.850;2022-07-09T11:03:04;1.73;;;0.73;;
24305;SDS011;12423;48.768;8.850;2022-07-09T11:05:06;2.38;;;0.70;;
24305;SDS011;12423;48.768;8.850;2022-07-09T11:07:07;1.35;;;0.60;;
24305;SDS011;12423;48.768;8.850;2022-07-09T11:09:14;1.67;;;0.70;;
24305;SDS011;12423;48.768;8.850;2022-07-09T11:11:22;2.55;;;1.00;;
24305;SDS011;12423;48.768;8.850;2022-07-09T11:13:23;4.63;;;0.80;;
24305;SDS011;12423;48.768;8.850;2022-07-09T11:15:27;2.97;;;0.82;;
24305;SDS011;12423;48.768;8.850;2022-07-09T11:17:29;5.85;;;1.20;;
24305;SDS011;12423;48.768;8.850;2022-07-09T11:19:30;3.60;;;0.90;;
24305;SDS011;12423;48.768;8.850;2022-07-09T11:21:32;3.30;;;0.98;;
24305;SDS011;12423;48.768;8.850;2022-07-09T11:23:33;2.75;;;0.82;;
24305;SDS011;12423;48.768;8.850;2022-07-09T11:25:34;4.22;;;0.90;;
24305;SDS011;12423;48.768;8.850;2022-07-09T11:27:39;3.45;;;1.10;;
24305;SDS011;12423;48.768;8.850;2022-07-09T11:29:45;2.42;;;0.80;;
24305;SDS011;12423;48.768;8.850;2022-07-09T11:31:48;3.75;;;1.20;;
24305;SDS011;12423;48.768;8.850;2022-07-09T11:33:50;2.13;;;0.70;;
24305;SDS011;12423;48.768;8.850;2022-07-09T11:36:10;2.30;;;0.90;;
24305;SDS011;12423;48.768;8.850;2022-07-09T11:38:11;3.88;;;0.98;;
24305;SDS011;12423;48.768;8.850;2022-07-09T11:40:15;3.47;;;1.08;;
24305;SDS011;12423;48.768;8.850;2022-07-09T11:42:18;2.78;;;0.82;;
24305;SDS011;12423;48.768;8.850;2022-07-09T11:44:24;2.92;;;1.00;;
24305;SDS011;12423;48.768;8.850;2022-07-09T11:46:26;3.40;;;0.90;;
24305;SDS011;12423;48.768;8.850;2022-07-09T11:48:27;4.30;;;1.00;;
24305;SDS011;12423;48.768;8.850;2022-07-09T11:50:28;2.53;;;0.70;;
24305;SDS011;12423;48.768;8.850;2022-07-09T11:52:29;5.05;;;0.93;;
24305;SDS011;12423;48.768;8.850;2022-07-09T11:54:30;2.00;;;0.70;;
24305;SDS011;12423;48.768;8.850;2022-07-09T11:56:41;2.92;;;0.85;;
24305;SDS011;12423;48.768;8.850;2022-07-09T11:58:49;2.22;;;0.68;;
24305;SDS011;12423;48.768;8.850;2022-07-09T12:00:51;2.53;;;0.80;;
24305;SDS011;12423;48.768;8.850;2022-07-09T12:02:52;1.55;;;0.80;;
24305;SDS011;12423;48.768;8.850;2022-07-09T12:04:53;1.13;;;0.63;;
24305;SDS011;12423;48.768;8.850;2022-07-09T12:06:54;1.25;;;0.60;;
24305;SDS011;12423;48.768;8.850;2022-07-09T12:09:02;2.15;;;0.82;;
24305;SDS011;12423;48.768;8.850;2022-07-09T12:11:05;1.92;;;0.70;;
24305;SDS011;12423;48.768;8.850;2022-07-09T12:13:06;2.35;;;0.60;;
24305;SDS011;12423;48.768;8.850;2022-07-09T12:15:09;2.28;;;0.80;;
24305;SDS011;12423;48.768;8.850;2022-07-09T12:17:17;2.15;;;0.77;;